Fort McKavett, Texas
Current Conditions -  °F | °C
As of 9:51 AM on Wednesday 22 Oct 2014 (Local Time) from KJCT Reporting Station
Broken Clouds Broken Clouds  
Wind Chill: 68°   Ceiling: 10000
Heat Index: 68°   Visibility: 9mi
Dew Point: 53°   Wind: 7mph
Humidity: 59%   Direction: 90°E
Pressure: 30.14"   Gusts: NA
Location:  30.83°N, 100.11°W
Report Text: KJCT 221451Z AUTO 09006KT 9SM BKN100 20/12 A3014 RMK AO2 SLP175 T02000117 51013
Loading
Personal Weather Stations






























Interactive Weather Map
Tropical Storm Tracking
New forecast layout! Learn more

10-Day Weather Forecast

Advertisements
Track Severe Weather on mobile